createdAt,value
2018-03-19T00:00:45.286Z,8.93
2018-03-19T00:03:11.312Z,5.45
2018-03-19T00:05:37.330Z,6.53
2018-03-19T00:08:04.106Z,7.80
2018-03-19T00:10:30.142Z,7.00
2018-03-19T00:12:56.181Z,8.32
2018-03-19T00:15:22.207Z,7.90
2018-03-19T00:17:48.254Z,6.72
2018-03-19T00:20:14.286Z,6.80
2018-03-19T00:22:40.305Z,5.25
2018-03-19T00:25:07.072Z,8.00
2018-03-19T00:27:33.121Z,9.82
2018-03-19T00:29:59.156Z,7.72
2018-03-19T00:32:25.202Z,6.60
2018-03-19T00:34:51.415Z,6.68
2018-03-19T00:37:17.632Z,5.10
2018-03-19T00:39:43.845Z,5.50
2018-03-19T00:42:10.830Z,6.85
2018-03-19T00:44:37.813Z,6.90
2018-03-19T00:47:04.044Z,5.85
2018-03-19T00:49:31.023Z,5.45
2018-03-19T00:51:57.259Z,6.35
2018-03-19T00:54:23.534Z,7.07
2018-03-19T00:56:50.576Z,5.00
2018-03-19T00:59:16.790Z,6.47
2018-03-19T01:01:43.043Z,11.95
2018-03-19T01:04:09.261Z,8.02
2018-03-19T01:06:35.546Z,6.10
2018-03-19T01:09:01.794Z,5.82
2018-03-19T01:11:28.033Z,8.27
2018-03-19T01:13:55.518Z,7.10
2018-03-19T01:16:22.324Z,8.90
2018-03-19T01:18:49.529Z,6.75
2018-03-19T01:21:16.169Z,7.18
2018-03-19T01:23:42.393Z,7.28
2018-03-19T01:26:08.633Z,9.00
2018-03-19T01:28:34.709Z,11.73
2018-03-19T01:31:00.735Z,8.40
2018-03-19T01:33:26.760Z,7.85
2018-03-19T01:35:52.791Z,5.37
2018-03-19T01:38:18.847Z,6.40
2018-03-19T01:40:44.901Z,7.05
2018-03-19T01:43:11.882Z,6.40
2018-03-19T01:45:38.854Z,8.35
2018-03-19T01:48:05.069Z,7.40
2018-03-19T01:50:32.125Z,10.23
2018-03-19T01:52:59.109Z,7.57
2018-03-19T01:55:25.327Z,7.97
2018-03-19T01:57:51.550Z,9.68
2018-03-19T02:00:18.528Z,8.93
2018-03-19T02:02:45.507Z,9.10
2018-03-19T02:05:11.787Z,5.62
2018-03-19T02:07:38.100Z,7.82
2018-03-19T02:10:04.251Z,7.43
2018-03-19T02:12:30.489Z,7.50
2018-03-19T02:14:56.745Z,8.40
2018-03-19T02:17:22.980Z,7.40
2018-03-19T02:19:49.226Z,10.20
2018-03-19T02:22:15.457Z,8.07
2018-03-19T02:24:41.666Z,6.00
2018-03-19T02:27:08.637Z,9.23
2018-03-19T02:29:34.893Z,7.65
2018-03-19T02:32:01.115Z,5.78
2018-03-19T02:34:27.344Z,7.82
2018-03-19T02:36:55.360Z,6.68
2018-03-19T02:39:21.598Z,5.90
2018-03-19T02:41:47.878Z,6.47
2018-03-19T02:44:14.049Z,7.82
2018-03-19T02:46:41.290Z,9.00
2018-03-19T02:49:08.280Z,7.00
2018-03-19T02:51:34.540Z,7.72
2018-03-19T02:54:00.759Z,9.38
2018-03-19T02:56:31.899Z,8.23
2018-03-19T02:58:58.904Z,9.57
2018-03-19T03:01:24.954Z,7.80
2018-03-19T03:03:50.984Z,7.80
2018-03-19T03:06:17.012Z,9.52
2018-03-19T03:08:43.053Z,8.55
2018-03-19T03:11:09.114Z,6.80
2018-03-19T03:13:35.896Z,7.65
2018-03-19T03:16:03.541Z,7.37
2018-03-19T03:18:29.562Z,7.43
2018-03-19T03:20:55.658Z,6.03
2018-03-19T03:23:21.693Z,11.10
2018-03-19T03:25:47.839Z,8.23
2018-03-19T03:28:13.884Z,6.82
2018-03-19T03:30:39.959Z,9.52
2018-03-19T03:33:06.728Z,8.70
2018-03-19T03:35:32.969Z,10.80
2018-03-19T03:37:59.208Z,6.70
2018-03-19T03:40:26.202Z,6.40
2018-03-19T03:42:52.430Z,10.77
2018-03-19T03:45:18.684Z,9.20
2018-03-19T03:47:44.921Z,8.50
2018-03-19T03:50:11.869Z,7.40
2018-03-19T03:52:38.131Z,6.93
2018-03-19T03:55:04.407Z,8.35
2018-03-19T03:57:30.682Z,11.02
2018-03-19T03:59:57.029Z,7.62
2018-03-19T04:02:24.025Z,7.65
2018-03-19T04:04:50.257Z,8.18
2018-03-19T04:07:17.208Z,11.45
2018-03-19T04:09:44.153Z,8.98
2018-03-19T04:12:10.442Z,8.85
2018-03-19T04:14:37.457Z,7.00
2018-03-19T04:17:03.733Z,8.88
2018-03-19T04:19:29.955Z,7.35
2018-03-19T04:21:56.200Z,9.70
2018-03-19T04:24:22.445Z,9.90
2018-03-19T04:26:48.654Z,7.20
2018-03-19T04:29:14.890Z,5.80
2018-03-19T04:31:42.939Z,6.87
2018-03-19T04:34:09.185Z,10.02
2018-03-19T04:36:35.421Z,8.25
2018-03-19T04:39:03.225Z,9.23
2018-03-19T04:41:29.473Z,7.18
2018-03-19T04:43:55.762Z,5.47
2018-03-19T04:46:22.047Z,11.88
2018-03-19T04:48:49.021Z,6.22
2018-03-19T04:51:15.983Z,10.98
2018-03-19T04:53:42.207Z,10.38
2018-03-19T04:56:09.177Z,7.30
2018-03-19T04:58:35.405Z,8.63
2018-03-19T05:01:02.195Z,8.80
2018-03-19T05:03:28.299Z,9.85
2018-03-19T05:05:55.055Z,8.43
2018-03-19T05:08:21.840Z,11.23
2018-03-19T05:10:47.936Z,9.18
2018-03-19T05:13:14.718Z,6.40
2018-03-19T05:15:40.748Z,10.13
2018-03-19T05:18:06.779Z,10.50
2018-03-19T05:20:32.820Z,8.68
2018-03-19T05:22:58.853Z,6.57
2018-03-19T05:25:24.909Z,8.68
2018-03-19T05:27:50.976Z,9.88
2018-03-19T05:30:17.026Z,8.93
2018-03-19T05:32:43.068Z,8.55
2018-03-19T05:35:09.668Z,9.40
2018-03-19T05:37:35.698Z,11.60
2018-03-19T05:40:01.746Z,10.43
2018-03-19T05:42:27.791Z,10.40
2018-03-19T05:44:54.038Z,7.97
2018-03-19T05:47:20.182Z,13.68
2018-03-19T05:49:46.245Z,9.27
2018-03-19T05:52:13.733Z,9.32
2018-03-19T05:54:40.495Z,9.52
2018-03-19T05:57:07.246Z,7.22
2018-03-19T05:59:33.266Z,10.43
2018-03-19T06:02:00.042Z,8.65
2018-03-19T06:04:26.081Z,10.88
2018-03-19T06:06:52.138Z,10.32
2018-03-19T06:09:18.791Z,10.90
2018-03-19T06:11:45.158Z,11.23
2018-03-19T06:14:11.487Z,8.88
2018-03-19T06:16:37.776Z,7.40
2018-03-19T06:19:04.037Z,11.63
2018-03-19T06:21:30.297Z,13.48
2018-03-19T06:23:56.698Z,8.55
2018-03-19T06:26:23.689Z,8.63
2018-03-19T06:28:49.947Z,10.35
2018-03-19T06:31:17.919Z,6.32
2018-03-19T06:33:45.222Z,9.50
2018-03-19T06:36:11.441Z,10.00
2018-03-19T06:38:39.066Z,9.55
2018-03-19T06:41:05.318Z,9.35
2018-03-19T06:43:31.805Z,9.35
2018-03-19T06:45:58.034Z,9.50
2018-03-19T06:48:24.265Z,9.77
2018-03-19T06:50:50.497Z,11.35
2018-03-19T06:53:18.357Z,8.35
2018-03-19T06:55:45.356Z,12.15
2018-03-19T06:58:11.573Z,7.57
2018-03-19T07:00:38.145Z,8.85
2018-03-19T07:03:05.079Z,10.63
2018-03-19T07:05:31.335Z,11.52
2018-03-19T07:07:57.665Z,10.68
2018-03-19T07:10:23.937Z,8.77
2018-03-19T07:12:50.184Z,7.28
2018-03-19T07:15:17.175Z,9.23
2018-03-19T07:17:44.212Z,8.00
2018-03-19T07:20:10.431Z,9.57
2018-03-19T07:22:36.697Z,9.40
2018-03-19T07:25:02.940Z,10.77
2018-03-19T07:27:31.401Z,9.65
2018-03-19T07:29:58.528Z,9.30
2018-03-19T07:32:24.926Z,8.45
2018-03-19T07:34:51.181Z,8.35
2018-03-19T07:37:18.177Z,11.02
2018-03-19T07:39:44.407Z,8.93
2018-03-19T07:42:15.401Z,9.85
2018-03-19T07:44:41.645Z,8.90
2018-03-19T07:47:07.922Z,11.93
2018-03-19T07:49:34.139Z,8.80
2018-03-19T07:52:00.362Z,11.77
2018-03-19T07:54:26.636Z,10.50
2018-03-19T07:56:53.059Z,10.63
2018-03-19T07:59:19.350Z,9.45
2018-03-19T08:01:46.353Z,8.82
2018-03-19T08:04:12.605Z,10.18
2018-03-19T08:06:38.841Z,12.02
2018-03-19T08:09:05.068Z,10.65
2018-03-19T08:11:31.292Z,10.50
2018-03-19T08:13:57.529Z,8.80
2018-03-19T08:16:23.800Z,8.43
2018-03-19T08:18:50.037Z,9.65
2018-03-19T08:21:16.297Z,9.57
2018-03-19T08:23:42.580Z,11.25
2018-03-19T08:26:08.841Z,10.80
2018-03-19T08:28:35.121Z,12.07
2018-03-19T08:31:02.554Z,15.93
2018-03-19T08:33:28.800Z,8.77
2018-03-19T08:35:55.037Z,10.10
2018-03-19T08:38:21.323Z,9.05
2018-03-19T08:40:47.746Z,11.60
2018-03-19T08:43:14.035Z,13.20
2018-03-19T08:45:40.257Z,13.45
2018-03-19T08:48:06.502Z,10.98
2018-03-19T08:50:32.726Z,10.70
2018-03-19T08:52:58.957Z,12.35
2018-03-19T08:55:25.245Z,9.88
2018-03-19T08:57:51.482Z,10.57
2018-03-19T09:00:17.705Z,9.68
2018-03-19T09:02:43.915Z,12.40
2018-03-19T09:05:10.153Z,10.23
2018-03-19T09:07:36.393Z,10.02
2018-03-19T09:10:02.646Z,10.60
2018-03-19T09:12:28.866Z,8.65
2018-03-19T09:14:55.118Z,8.70
2018-03-19T09:17:21.621Z,8.88
2018-03-19T09:19:47.967Z,9.75
2018-03-19T09:22:14.905Z,9.15
2018-03-19T09:24:41.112Z,8.85
2018-03-19T09:27:07.145Z,7.57
2018-03-19T09:29:33.191Z,11.10
2018-03-19T09:31:59.233Z,9.88
2018-03-19T09:34:25.302Z,9.60
2018-03-19T09:36:51.379Z,11.60
2018-03-19T09:39:17.401Z,12.32
2018-03-19T09:41:43.433Z,10.75
2018-03-19T09:44:09.471Z,10.68
2018-03-19T09:46:37.429Z,13.02
2018-03-19T09:49:04.204Z,12.05
2018-03-19T09:51:30.243Z,13.50
2018-03-19T09:53:57.208Z,10.70
2018-03-19T09:56:23.461Z,11.18
2018-03-19T09:58:49.681Z,14.90
2018-03-19T10:01:15.913Z,7.72
2018-03-19T10:03:43.681Z,9.75
2018-03-19T10:06:10.666Z,7.72
2018-03-19T10:08:37.622Z,10.65
2018-03-19T10:11:03.854Z,11.20
2018-03-19T10:13:30.905Z,8.70
2018-03-19T10:15:57.901Z,10.25
2018-03-19T10:18:28.658Z,9.73
2018-03-19T10:20:54.905Z,11.63
2018-03-19T10:23:21.162Z,10.80
2018-03-19T10:25:47.415Z,11.65
2018-03-19T10:28:14.438Z,10.30
2018-03-19T10:30:40.708Z,9.05
2018-03-19T10:33:06.944Z,10.88
2018-03-19T10:35:35.579Z,9.10
2018-03-19T10:38:01.813Z,8.50
2018-03-19T10:40:28.137Z,9.35
2018-03-19T10:42:54.189Z,9.32
2018-03-19T10:45:20.978Z,7.78
2018-03-19T10:47:47.034Z,8.48
2018-03-19T10:50:13.310Z,9.27
2018-03-19T10:52:43.962Z,8.20
2018-03-19T10:55:10.214Z,8.60
2018-03-19T10:57:36.463Z,9.77
2018-03-19T11:00:02.773Z,9.65
2018-03-19T11:02:32.135Z,8.90
2018-03-19T11:05:00.161Z,8.82
2018-03-19T11:10:23.973Z,8.93
2018-03-19T11:12:51.913Z,9.30
2018-03-19T11:15:18.162Z,8.23
2018-03-19T11:17:45.152Z,11.63
2018-03-19T11:20:11.432Z,9.43
2018-03-19T11:22:37.659Z,8.15
2018-03-19T11:25:03.923Z,11.68
2018-03-19T11:27:29.962Z,8.57
2018-03-19T11:30:00.029Z,7.15
2018-03-19T11:32:26.090Z,6.78
2018-03-19T11:34:52.164Z,7.80
2018-03-19T11:37:18.946Z,7.22
2018-03-19T11:39:45.209Z,7.03
2018-03-19T11:42:11.555Z,9.00
2018-03-19T11:44:37.821Z,8.40
2018-03-19T11:47:04.069Z,7.28
2018-03-19T11:49:32.293Z,6.30
2018-03-19T11:51:59.096Z,9.02
2018-03-19T11:54:25.164Z,7.32
2018-03-19T11:56:51.220Z,5.95
2018-03-19T11:59:17.266Z,6.50
2018-03-19T12:01:44.252Z,8.20
2018-03-19T12:04:11.050Z,5.87
2018-03-19T12:06:39.595Z,8.35
2018-03-19T12:09:06.276Z,6.10
2018-03-19T12:11:32.533Z,8.38
2018-03-19T12:13:58.810Z,8.05
2018-03-19T12:16:25.194Z,6.45
2018-03-19T12:18:51.444Z,10.88
2018-03-19T12:21:17.695Z,10.20
2018-03-19T12:23:43.977Z,7.35
2018-03-19T12:26:11.630Z,7.97
2018-03-19T12:28:37.853Z,7.40
2018-03-19T12:31:04.090Z,6.53
2018-03-19T12:33:30.321Z,7.82
2018-03-19T12:35:56.543Z,6.45
2018-03-19T12:38:22.588Z,7.05
2018-03-19T12:40:48.845Z,7.32
2018-03-19T12:43:15.109Z,8.43
2018-03-19T12:45:48.392Z,6.05
2018-03-19T12:48:14.604Z,9.02
2018-03-19T12:50:40.841Z,7.28
2018-03-19T12:53:06.884Z,5.53
2018-03-19T12:55:32.999Z,7.15
2018-03-19T12:57:59.044Z,7.30
2018-03-19T13:00:25.322Z,6.00
2018-03-19T13:05:25.216Z,6.25
2018-03-19T13:07:51.458Z,5.10
2018-03-19T13:10:17.512Z,6.68
2018-03-19T13:12:43.549Z,7.25
2018-03-19T13:15:09.801Z,9.85
2018-03-19T13:17:35.936Z,7.62
2018-03-19T13:20:05.493Z,5.37
2018-03-19T13:22:32.481Z,5.78
2018-03-19T13:24:58.753Z,6.30
2018-03-19T13:27:24.997Z,6.87
2018-03-19T13:29:51.270Z,5.55
2018-03-19T13:32:18.262Z,7.87
2018-03-19T13:34:45.561Z,7.35
2018-03-19T13:37:12.939Z,8.25
2018-03-19T13:39:39.165Z,5.68
2018-03-19T13:42:05.416Z,8.13
2018-03-19T13:44:31.665Z,5.57
2018-03-19T13:46:57.946Z,6.47
2018-03-19T13:49:24.172Z,4.32
2018-03-19T13:51:50.214Z,7.85
2018-03-19T13:54:16.257Z,7.00
2018-03-19T13:56:44.118Z,8.00
2018-03-19T13:59:10.885Z,8.00
2018-03-19T14:01:36.932Z,9.30
2018-03-19T14:04:03.002Z,5.72
2018-03-19T14:06:30.018Z,5.35
2018-03-19T14:08:56.261Z,6.53
2018-03-19T14:11:22.559Z,7.62
2018-03-19T14:13:50.892Z,6.85
2018-03-19T14:16:19.849Z,6.28
2018-03-19T14:18:46.813Z,5.03
2018-03-19T14:21:13.061Z,9.38
2018-03-19T14:23:39.304Z,6.82
2018-03-19T14:26:05.638Z,7.60
2018-03-19T14:28:32.609Z,6.37
2018-03-19T14:31:01.230Z,7.57
2018-03-19T14:33:27.547Z,8.60
2018-03-19T14:35:53.872Z,9.75
2018-03-19T14:38:20.081Z,5.85
2018-03-19T14:40:46.314Z,6.32
2018-03-19T14:43:12.573Z,6.97
2018-03-19T14:45:38.790Z,6.85
2018-03-19T14:48:07.797Z,6.20
2018-03-19T14:50:34.080Z,6.80
2018-03-19T14:53:00.297Z,6.03
2018-03-19T14:55:26.531Z,7.62
2018-03-19T14:57:52.821Z,6.85
2018-03-19T15:00:19.057Z,8.30
2018-03-19T15:02:45.309Z,9.55
2018-03-19T15:05:11.349Z,7.35
2018-03-19T15:07:37.413Z,8.95
2018-03-19T15:10:06.435Z,6.55
2018-03-19T15:12:33.477Z,8.35
2018-03-19T15:14:59.746Z,10.23
2018-03-19T15:17:26.017Z,7.18
2018-03-19T15:19:52.274Z,7.07
2018-03-19T15:22:18.611Z,8.00
2018-03-19T15:24:45.297Z,6.72
2018-03-19T15:27:11.634Z,9.23
2018-03-19T15:29:37.868Z,7.18
2018-03-19T15:32:04.173Z,7.35
2018-03-19T15:34:31.335Z,8.13
2018-03-19T15:36:58.320Z,9.25
2018-03-19T15:39:24.598Z,9.85
2018-03-19T15:41:50.845Z,8.10
2018-03-19T15:44:17.078Z,10.98
2018-03-19T15:46:43.353Z,6.80
2018-03-19T15:49:09.612Z,11.88
2018-03-19T15:51:36.660Z,8.88
2018-03-19T15:54:03.010Z,7.50
2018-03-19T15:56:29.349Z,6.43
2018-03-19T15:58:55.692Z,7.50
2018-03-19T16:01:21.939Z,7.80
2018-03-19T16:03:48.930Z,8.95
2018-03-19T16:06:15.197Z,7.18
2018-03-19T16:08:41.598Z,10.45
2018-03-19T16:11:07.669Z,6.82
2018-03-19T16:13:33.706Z,6.37
2018-03-19T16:16:01.158Z,8.00
2018-03-19T16:18:27.502Z,6.85
2018-03-19T16:20:53.802Z,8.40
2018-03-19T16:23:20.043Z,7.28
2018-03-19T16:28:20.209Z,5.32
2018-03-19T16:30:46.447Z,9.48
2018-03-19T16:33:12.713Z,8.40
2018-03-19T16:35:38.781Z,8.32
2018-03-19T16:38:04.813Z,9.93
2018-03-19T16:40:30.847Z,6.07
2018-03-19T16:42:57.025Z,16.87
2018-03-19T16:45:23.129Z,6.82
2018-03-19T16:47:49.213Z,6.50
2018-03-19T16:50:16.093Z,9.40
2018-03-19T16:52:42.126Z,7.90
2018-03-19T16:55:08.366Z,13.18
2018-03-19T16:57:34.455Z,8.25
2018-03-19T17:00:00.701Z,9.75
2018-03-19T17:02:26.764Z,6.25
2018-03-19T17:04:52.827Z,8.20
2018-03-19T17:07:18.931Z,7.12
2018-03-19T17:09:45.930Z,9.32
2018-03-19T17:12:12.106Z,8.65
2018-03-19T17:14:39.107Z,9.10
2018-03-19T17:17:06.144Z,8.43
2018-03-19T17:19:33.134Z,7.68
2018-03-19T17:22:00.134Z,7.97
2018-03-19T17:24:26.382Z,11.55
2018-03-19T17:26:53.405Z,5.15
2018-03-19T17:29:19.629Z,4.80
2018-03-19T17:31:46.596Z,6.25
2018-03-19T17:34:13.589Z,5.50
2018-03-19T17:36:41.889Z,6.60
2018-03-19T17:39:08.873Z,5.22
2018-03-19T17:41:35.118Z,5.93
2018-03-19T17:44:01.434Z,6.75
2018-03-19T17:46:27.716Z,5.80
2018-03-19T17:48:54.727Z,8.88
2018-03-19T17:51:20.961Z,7.18
2018-03-19T17:53:50.046Z,6.15
2018-03-19T17:56:16.736Z,6.03
2018-03-19T17:58:43.755Z,5.65
2018-03-19T18:01:10.040Z,6.80
2018-03-19T18:03:36.281Z,6.20
2018-03-19T18:06:02.518Z,5.70
2018-03-19T18:08:28.737Z,4.93
2018-03-19T18:10:59.318Z,4.90
2018-03-19T18:13:26.378Z,4.95
2018-03-19T18:15:52.650Z,6.43
2018-03-19T18:18:19.646Z,7.25
2018-03-19T18:20:45.945Z,5.12
2018-03-19T18:23:12.191Z,6.10
2018-03-19T18:25:39.193Z,7.25
2018-03-19T18:28:05.428Z,4.95
2018-03-19T18:30:31.745Z,5.53
2018-03-19T18:32:58.025Z,5.22
2018-03-19T18:35:24.065Z,8.52
2018-03-19T18:37:50.988Z,5.85
2018-03-19T18:40:17.156Z,6.60
2018-03-19T18:42:43.197Z,4.75
2018-03-19T18:45:09.245Z,7.40
2018-03-19T18:47:35.317Z,9.13
2018-03-19T18:50:01.386Z,7.90
2018-03-19T18:52:27.441Z,6.18
2018-03-19T18:54:53.514Z,6.07
2018-03-19T18:57:19.557Z,5.45
2018-03-19T18:59:45.609Z,6.75
2018-03-19T19:02:11.733Z,11.10
2018-03-19T19:04:37.772Z,8.75
2018-03-19T19:07:03.858Z,5.57
2018-03-19T19:09:30.609Z,6.85
2018-03-19T19:11:58.885Z,6.07
2018-03-19T19:14:25.857Z,9.82
2018-03-19T19:16:52.089Z,5.87
2018-03-19T19:19:18.421Z,8.40
2018-03-19T19:21:45.397Z,7.35
2018-03-19T19:24:11.438Z,7.72
2018-03-19T19:26:37.473Z,7.68
2018-03-19T19:29:03.605Z,8.43
2018-03-19T19:31:30.370Z,9.25
2018-03-19T19:33:56.422Z,9.25
2018-03-19T19:36:22.451Z,7.65
2018-03-19T19:38:48.671Z,5.50
2018-03-19T19:41:14.713Z,6.37
2018-03-19T19:43:40.745Z,6.18
2018-03-19T19:46:06.816Z,6.45
2018-03-19T19:48:32.916Z,7.65
2018-03-19T19:50:59.157Z,7.68
2018-03-19T19:53:26.132Z,7.80
2018-03-19T19:55:52.420Z,5.37
2018-03-19T19:58:19.399Z,8.77
2018-03-19T20:00:45.635Z,6.68
2018-03-19T20:03:12.612Z,8.07
2018-03-19T20:05:38.896Z,10.02
2018-03-19T20:08:05.157Z,7.20
2018-03-19T20:10:31.393Z,7.65
2018-03-19T20:12:57.629Z,11.50
2018-03-19T20:15:23.890Z,7.60
2018-03-19T20:17:50.169Z,6.40
2018-03-19T20:20:16.459Z,6.53
2018-03-19T20:22:42.701Z,10.18
2018-03-19T20:25:08.918Z,7.70
2018-03-19T20:27:35.154Z,9.20
2018-03-19T20:30:01.514Z,10.10
2018-03-19T20:32:27.848Z,7.10
2018-03-19T20:34:54.087Z,7.25
2018-03-19T20:37:20.401Z,6.70
2018-03-19T20:39:47.400Z,8.75
2018-03-19T20:42:14.409Z,10.80
2018-03-19T20:44:40.646Z,8.65
2018-03-19T20:47:06.907Z,7.87
2018-03-19T20:49:33.122Z,11.02
2018-03-19T20:51:59.389Z,7.93
2018-03-19T20:54:25.662Z,9.85
2018-03-19T20:56:51.856Z,7.90
2018-03-19T20:59:18.113Z,12.90
2018-03-19T21:01:44.352Z,12.15
2018-03-19T21:04:10.376Z,9.48
2018-03-19T21:06:36.397Z,11.27
2018-03-19T21:09:02.421Z,15.55
2018-03-19T21:11:28.494Z,13.75
2018-03-19T21:13:54.723Z,15.45
2018-03-19T21:16:20.925Z,12.90
2018-03-19T21:18:47.133Z,10.73
2018-03-19T21:21:13.366Z,12.30
2018-03-19T21:23:39.597Z,13.57
2018-03-19T21:26:05.835Z,14.15
2018-03-19T21:28:32.070Z,14.10
2018-03-19T21:30:58.345Z,11.32
2018-03-19T21:33:24.689Z,15.70
2018-03-19T21:35:51.718Z,17.17
2018-03-19T21:38:17.969Z,12.80
2018-03-19T21:40:44.185Z,13.38
2018-03-19T21:43:10.396Z,11.75
2018-03-19T21:45:37.363Z,10.35
2018-03-19T21:48:03.597Z,14.18
2018-03-19T21:50:30.621Z,10.98
2018-03-19T21:52:56.983Z,11.60
2018-03-19T21:55:23.977Z,13.55
2018-03-19T21:57:50.241Z,12.27
2018-03-19T22:00:16.482Z,12.57
2018-03-19T22:02:42.774Z,11.25
2018-03-19T22:05:08.989Z,13.05
2018-03-19T22:07:35.233Z,12.95
2018-03-19T22:10:01.437Z,9.90
2018-03-19T22:12:27.653Z,11.98
2018-03-19T22:14:54.680Z,10.80
2018-03-19T22:17:20.966Z,13.18
2018-03-19T22:19:47.225Z,12.30
2018-03-19T22:22:13.448Z,15.05
2018-03-19T22:24:39.697Z,16.77
2018-03-19T22:27:06.052Z,13.90
2018-03-19T22:29:32.330Z,15.20
2018-03-19T22:31:58.570Z,15.55
2018-03-19T22:34:25.547Z,13.65
2018-03-19T22:36:52.766Z,17.37
2018-03-19T22:39:19.054Z,14.68
2018-03-19T22:41:46.013Z,16.92
2018-03-19T22:44:12.978Z,15.02
2018-03-19T22:46:39.950Z,17.05
2018-03-19T22:49:06.800Z,14.38
2018-03-19T22:51:33.092Z,16.40
2018-03-19T22:53:59.353Z,13.40
2018-03-19T22:56:25.708Z,15.70
2018-03-19T22:58:52.707Z,15.93
2018-03-19T23:01:18.961Z,18.30
2018-03-19T23:03:45.269Z,16.48
2018-03-19T23:06:12.220Z,17.73
2018-03-19T23:08:39.198Z,16.17
2018-03-19T23:11:06.297Z,17.08
2018-03-19T23:13:32.503Z,15.27
2018-03-19T23:15:58.717Z,15.00
2018-03-19T23:18:25.108Z,13.52
2018-03-19T23:20:51.370Z,12.63
2018-03-19T23:23:17.602Z,14.80
2018-03-19T23:25:43.877Z,12.35
2018-03-19T23:28:10.841Z,11.05
2018-03-19T23:30:37.100Z,14.40
2018-03-19T23:33:03.342Z,12.20
2018-03-19T23:35:29.605Z,11.85
2018-03-19T23:37:55.832Z,14.95
2018-03-19T23:40:22.090Z,11.23
2018-03-19T23:42:48.393Z,11.68
2018-03-19T23:45:14.641Z,11.93
2018-03-19T23:47:40.892Z,11.20
2018-03-19T23:50:07.121Z,10.98
2018-03-19T23:52:33.368Z,12.37
2018-03-19T23:54:59.589Z,13.50
2018-03-19T23:57:25.832Z,8.85
2018-03-19T23:59:52.798Z,15.13
